sensor_id;sensor_type;location;lat;lon;timestamp;P1;durP1;ratioP1;P2;durP2;ratioP2
74231;SDS011;62590;52.430;4.902;2022-10-16T00:01:10;4.50;;;1.08;;
74231;SDS011;62590;52.430;4.902;2022-10-16T00:03:38;4.68;;;1.00;;
74231;SDS011;62590;52.430;4.902;2022-10-16T00:06:05;8.13;;;1.10;;
74231;SDS011;62590;52.430;4.902;2022-10-16T00:08:32;4.40;;;0.88;;
74231;SDS011;62590;52.430;4.902;2022-10-16T00:11:06;4.18;;;1.05;;
74231;SDS011;62590;52.430;4.902;2022-10-16T00:13:36;4.72;;;1.02;;
74231;SDS011;62590;52.430;4.902;2022-10-16T00:16:03;10.02;;;1.40;;
74231;SDS011;62590;52.430;4.902;2022-10-16T00:18:29;10.07;;;1.48;;
74231;SDS011;62590;52.430;4.902;2022-10-16T00:20:55;6.55;;;1.05;;
74231;SDS011;62590;52.430;4.902;2022-10-16T00:23:26;4.43;;;0.90;;
74231;SDS011;62590;52.430;4.902;2022-10-16T00:25:58;3.30;;;0.98;;
74231;SDS011;62590;52.430;4.902;2022-10-16T00:28:25;5.22;;;0.98;;
74231;SDS011;62590;52.430;4.902;2022-10-16T00:30:51;11.45;;;1.60;;
74231;SDS011;62590;52.430;4.902;2022-10-16T00:33:17;6.20;;;1.30;;
74231;SDS011;62590;52.430;4.902;2022-10-16T00:35:42;6.60;;;1.73;;
74231;SDS011;62590;52.430;4.902;2022-10-16T00:38:08;7.35;;;1.27;;
74231;SDS011;62590;52.430;4.902;2022-10-16T00:40:33;6.47;;;1.38;;
74231;SDS011;62590;52.430;4.902;2022-10-16T00:42:59;5.90;;;1.60;;
74231;SDS011;62590;52.430;4.902;2022-10-16T00:45:24;4.03;;;1.17;;
74231;SDS011;62590;52.430;4.902;2022-10-16T00:47:49;5.32;;;1.02;;
74231;SDS011;62590;52.430;4.902;2022-10-16T00:50:22;3.47;;;1.45;;
74231;SDS011;62590;52.430;4.902;2022-10-16T00:52:52;7.15;;;1.25;;
74231;SDS011;62590;52.430;4.902;2022-10-16T00:55:19;9.07;;;1.20;;
74231;SDS011;62590;52.430;4.902;2022-10-16T00:57:45;4.22;;;1.02;;
74231;SDS011;62590;52.430;4.902;2022-10-16T01:00:12;4.82;;;0.95;;
74231;SDS011;62590;52.430;4.902;2022-10-16T01:02:42;3.30;;;1.35;;
74231;SDS011;62590;52.430;4.902;2022-10-16T01:05:07;6.80;;;1.20;;
74231;SDS011;62590;52.430;4.902;2022-10-16T01:18:37;4.28;;;1.58;;
74231;SDS011;62590;52.430;4.902;2022-10-16T01:21:09;4.90;;;1.25;;
74231;SDS011;62590;52.430;4.902;2022-10-16T01:29:09;1.77;;;0.90;;
74231;SDS011;62590;52.430;4.902;2022-10-16T01:31:44;5.07;;;1.02;;
74231;SDS011;62590;52.430;4.902;2022-10-16T01:34:15;3.88;;;1.00;;
74231;SDS011;62590;52.430;4.902;2022-10-16T01:36:46;4.55;;;1.00;;
74231;SDS011;62590;52.430;4.902;2022-10-16T01:39:16;4.43;;;0.90;;
74231;SDS011;62590;52.430;4.902;2022-10-16T01:41:48;2.65;;;1.10;;
74231;SDS011;62590;52.430;4.902;2022-10-16T01:44:20;4.80;;;0.98;;
74231;SDS011;62590;52.430;4.902;2022-10-16T01:46:51;3.05;;;0.82;;
74231;SDS011;62590;52.430;4.902;2022-10-16T01:49:19;4.55;;;1.13;;
74231;SDS011;62590;52.430;4.902;2022-10-16T01:51:47;4.93;;;1.05;;
74231;SDS011;62590;52.430;4.902;2022-10-16T01:54:16;9.18;;;1.15;;
74231;SDS011;62590;52.430;4.902;2022-10-16T01:56:43;3.28;;;1.08;;
74231;SDS011;62590;52.430;4.902;2022-10-16T01:59:12;4.10;;;0.77;;
74231;SDS011;62590;52.430;4.902;2022-10-16T02:01:40;3.30;;;0.73;;
74231;SDS011;62590;52.430;4.902;2022-10-16T02:06:48;5.20;;;0.90;;
74231;SDS011;62590;52.430;4.902;2022-10-16T02:09:13;2.80;;;0.70;;
74231;SDS011;62590;52.430;4.902;2022-10-16T02:11:41;6.28;;;1.17;;
74231;SDS011;62590;52.430;4.902;2022-10-16T02:14:07;12.10;;;1.00;;
74231;SDS011;62590;52.430;4.902;2022-10-16T02:16:34;3.92;;;0.88;;
74231;SDS011;62590;52.430;4.902;2022-10-16T02:19:04;3.47;;;0.90;;
74231;SDS011;62590;52.430;4.902;2022-10-16T02:21:38;1.17;;;0.65;;
74231;SDS011;62590;52.430;4.902;2022-10-16T02:27:24;3.55;;;1.08;;
74231;SDS011;62590;52.430;4.902;2022-10-16T02:30:03;2.67;;;0.98;;
74231;SDS011;62590;52.430;4.902;2022-10-16T02:32:33;2.67;;;0.80;;
74231;SDS011;62590;52.430;4.902;2022-10-16T02:35:01;3.03;;;0.90;;
74231;SDS011;62590;52.430;4.902;2022-10-16T02:37:28;2.03;;;1.10;;
74231;SDS011;62590;52.430;4.902;2022-10-16T02:39:56;2.58;;;1.20;;
74231;SDS011;62590;52.430;4.902;2022-10-16T02:42:27;1.23;;;0.90;;
74231;SDS011;62590;52.430;4.902;2022-10-16T02:45:00;6.20;;;1.10;;
74231;SDS011;62590;52.430;4.902;2022-10-16T02:47:26;5.70;;;1.10;;
74231;SDS011;62590;52.430;4.902;2022-10-16T02:49:51;25.50;;;1.98;;
74231;SDS011;62590;52.430;4.902;2022-10-16T02:52:17;2.97;;;1.00;;
74231;SDS011;62590;52.430;4.902;2022-10-16T02:54:42;2.05;;;1.05;;
74231;SDS011;62590;52.430;4.902;2022-10-16T02:57:07;6.25;;;1.08;;
74231;SDS011;62590;52.430;4.902;2022-10-16T02:59:33;3.00;;;1.27;;
74231;SDS011;62590;52.430;4.902;2022-10-16T03:01:58;5.43;;;1.08;;
74231;SDS011;62590;52.430;4.902;2022-10-16T03:04:23;5.75;;;1.15;;
74231;SDS011;62590;52.430;4.902;2022-10-16T03:06:48;2.80;;;0.90;;
74231;SDS011;62590;52.430;4.902;2022-10-16T03:09:14;3.15;;;1.17;;
74231;SDS011;62590;52.430;4.902;2022-10-16T03:11:39;4.85;;;1.15;;
74231;SDS011;62590;52.430;4.902;2022-10-16T03:14:05;4.13;;;1.40;;
74231;SDS011;62590;52.430;4.902;2022-10-16T03:16:30;4.50;;;1.45;;
74231;SDS011;62590;52.430;4.902;2022-10-16T03:18:55;6.07;;;2.00;;
74231;SDS011;62590;52.430;4.902;2022-10-16T03:21:21;4.40;;;1.58;;
74231;SDS011;62590;52.430;4.902;2022-10-16T03:23:46;4.45;;;1.40;;
74231;SDS011;62590;52.430;4.902;2022-10-16T03:26:11;5.43;;;1.40;;
74231;SDS011;62590;52.430;4.902;2022-10-16T03:28:37;3.33;;;1.67;;
74231;SDS011;62590;52.430;4.902;2022-10-16T03:31:02;4.40;;;1.50;;
74231;SDS011;62590;52.430;4.902;2022-10-16T03:33:27;3.95;;;1.73;;
74231;SDS011;62590;52.430;4.902;2022-10-16T03:35:53;7.45;;;1.35;;
74231;SDS011;62590;52.430;4.902;2022-10-16T03:38:20;3.83;;;1.33;;
74231;SDS011;62590;52.430;4.902;2022-10-16T03:40:46;3.92;;;1.73;;
74231;SDS011;62590;52.430;4.902;2022-10-16T03:43:11;11.80;;;1.73;;
74231;SDS011;62590;52.430;4.902;2022-10-16T03:45:37;5.45;;;1.27;;
74231;SDS011;62590;52.430;4.902;2022-10-16T03:48:02;9.18;;;1.73;;
74231;SDS011;62590;52.430;4.902;2022-10-16T03:50:28;3.88;;;1.65;;
74231;SDS011;62590;52.430;4.902;2022-10-16T03:52:54;13.00;;;2.00;;
74231;SDS011;62590;52.430;4.902;2022-10-16T03:55:19;5.68;;;1.80;;
74231;SDS011;62590;52.430;4.902;2022-10-16T03:57:45;5.35;;;1.65;;
74231;SDS011;62590;52.430;4.902;2022-10-16T04:00:10;6.25;;;1.90;;
74231;SDS011;62590;52.430;4.902;2022-10-16T04:02:36;6.00;;;1.75;;
74231;SDS011;62590;52.430;4.902;2022-10-16T04:05:02;7.32;;;1.95;;
74231;SDS011;62590;52.430;4.902;2022-10-16T04:07:28;3.50;;;1.50;;
74231;SDS011;62590;52.430;4.902;2022-10-16T04:09:53;6.10;;;1.50;;
74231;SDS011;62590;52.430;4.902;2022-10-16T04:12:19;3.83;;;1.60;;
74231;SDS011;62590;52.430;4.902;2022-10-16T04:14:44;4.85;;;1.73;;
74231;SDS011;62590;52.430;4.902;2022-10-16T04:17:09;6.35;;;1.50;;
74231;SDS011;62590;52.430;4.902;2022-10-16T04:19:35;4.97;;;1.85;;
74231;SDS011;62590;52.430;4.902;2022-10-16T04:22:00;5.72;;;1.90;;
74231;SDS011;62590;52.430;4.902;2022-10-16T04:24:25;3.95;;;1.63;;
74231;SDS011;62590;52.430;4.902;2022-10-16T04:26:51;9.23;;;2.03;;
74231;SDS011;62590;52.430;4.902;2022-10-16T04:29:16;4.88;;;1.73;;
74231;SDS011;62590;52.430;4.902;2022-10-16T04:31:41;3.25;;;1.52;;
74231;SDS011;62590;52.430;4.902;2022-10-16T04:34:07;6.28;;;1.70;;
74231;SDS011;62590;52.430;4.902;2022-10-16T04:36:32;3.60;;;1.52;;
74231;SDS011;62590;52.430;4.902;2022-10-16T04:38:58;7.88;;;1.70;;
74231;SDS011;62590;52.430;4.902;2022-10-16T04:41:24;8.48;;;1.40;;
74231;SDS011;62590;52.430;4.902;2022-10-16T04:43:49;8.25;;;1.75;;
74231;SDS011;62590;52.430;4.902;2022-10-16T04:46:14;8.82;;;1.60;;
74231;SDS011;62590;52.430;4.902;2022-10-16T04:48:40;7.90;;;1.40;;
74231;SDS011;62590;52.430;4.902;2022-10-16T04:51:05;6.90;;;2.10;;
74231;SDS011;62590;52.430;4.902;2022-10-16T04:53:30;7.57;;;1.55;;
74231;SDS011;62590;52.430;4.902;2022-10-16T04:55:56;4.03;;;1.10;;
74231;SDS011;62590;52.430;4.902;2022-10-16T04:58:22;7.07;;;1.25;;
74231;SDS011;62590;52.430;4.902;2022-10-16T05:00:48;5.28;;;1.50;;
74231;SDS011;62590;52.430;4.902;2022-10-16T05:03:13;9.02;;;1.20;;
74231;SDS011;62590;52.430;4.902;2022-10-16T05:05:42;4.38;;;1.00;;
74231;SDS011;62590;52.430;4.902;2022-10-16T05:08:11;8.43;;;1.50;;
74231;SDS011;62590;52.430;4.902;2022-10-16T05:10:38;8.52;;;1.35;;
74231;SDS011;62590;52.430;4.902;2022-10-16T05:13:03;5.47;;;1.17;;
74231;SDS011;62590;52.430;4.902;2022-10-16T05:15:29;6.32;;;1.50;;
74231;SDS011;62590;52.430;4.902;2022-10-16T05:17:54;3.30;;;1.10;;
74231;SDS011;62590;52.430;4.902;2022-10-16T05:20:21;6.65;;;1.38;;
74231;SDS011;62590;52.430;4.902;2022-10-16T05:22:47;9.50;;;1.50;;
74231;SDS011;62590;52.430;4.902;2022-10-16T05:25:12;6.30;;;1.48;;
74231;SDS011;62590;52.430;4.902;2022-10-16T05:27:38;7.28;;;1.10;;
74231;SDS011;62590;52.430;4.902;2022-10-16T05:30:03;6.82;;;1.45;;
74231;SDS011;62590;52.430;4.902;2022-10-16T05:32:29;5.00;;;1.10;;
74231;SDS011;62590;52.430;4.902;2022-10-16T05:34:54;8.45;;;1.85;;
74231;SDS011;62590;52.430;4.902;2022-10-16T05:37:19;5.82;;;1.63;;
74231;SDS011;62590;52.430;4.902;2022-10-16T05:39:45;4.88;;;1.40;;
74231;SDS011;62590;52.430;4.902;2022-10-16T05:42:10;4.65;;;1.90;;
74231;SDS011;62590;52.430;4.902;2022-10-16T05:44:36;9.25;;;1.67;;
74231;SDS011;62590;52.430;4.902;2022-10-16T05:47:01;2.75;;;1.55;;
74231;SDS011;62590;52.430;4.902;2022-10-16T05:49:26;6.28;;;1.30;;
74231;SDS011;62590;52.430;4.902;2022-10-16T05:51:52;7.13;;;1.58;;
74231;SDS011;62590;52.430;4.902;2022-10-16T05:54:17;5.85;;;1.88;;
74231;SDS011;62590;52.430;4.902;2022-10-16T05:56:42;3.80;;;1.55;;
74231;SDS011;62590;52.430;4.902;2022-10-16T05:59:08;5.22;;;1.60;;
74231;SDS011;62590;52.430;4.902;2022-10-16T06:01:33;4.53;;;1.80;;
74231;SDS011;62590;52.430;4.902;2022-10-16T06:03:59;8.13;;;1.73;;
74231;SDS011;62590;52.430;4.902;2022-10-16T06:06:25;9.93;;;1.63;;
74231;SDS011;62590;52.430;4.902;2022-10-16T06:08:52;4.25;;;1.27;;
74231;SDS011;62590;52.430;4.902;2022-10-16T06:11:20;7.25;;;1.52;;
74231;SDS011;62590;52.430;4.902;2022-10-16T06:13:51;12.90;;;1.60;;
74231;SDS011;62590;52.430;4.902;2022-10-16T06:16:22;8.18;;;1.30;;
74231;SDS011;62590;52.430;4.902;2022-10-16T06:18:50;3.72;;;1.33;;
74231;SDS011;62590;52.430;4.902;2022-10-16T06:21:17;5.72;;;2.15;;
74231;SDS011;62590;52.430;4.902;2022-10-16T06:23:43;7.43;;;1.33;;
74231;SDS011;62590;52.430;4.902;2022-10-16T06:26:11;10.60;;;1.92;;
74231;SDS011;62590;52.430;4.902;2022-10-16T06:28:39;8.27;;;1.40;;
74231;SDS011;62590;52.430;4.902;2022-10-16T06:31:05;4.75;;;1.15;;
74231;SDS011;62590;52.430;4.902;2022-10-16T06:33:32;5.13;;;0.95;;
74231;SDS011;62590;52.430;4.902;2022-10-16T06:36:15;6.93;;;1.85;;
74231;SDS011;62590;52.430;4.902;2022-10-16T06:38:42;11.13;;;1.38;;
74231;SDS011;62590;52.430;4.902;2022-10-16T06:41:09;7.72;;;1.50;;
74231;SDS011;62590;52.430;4.902;2022-10-16T06:43:37;11.43;;;1.65;;
74231;SDS011;62590;52.430;4.902;2022-10-16T06:46:02;6.75;;;1.88;;
74231;SDS011;62590;52.430;4.902;2022-10-16T06:48:30;6.50;;;1.80;;
74231;SDS011;62590;52.430;4.902;2022-10-16T06:53:22;11.13;;;1.92;;
74231;SDS011;62590;52.430;4.902;2022-10-16T06:55:48;9.25;;;2.03;;
74231;SDS011;62590;52.430;4.902;2022-10-16T06:58:14;5.47;;;1.73;;
74231;SDS011;62590;52.430;4.902;2022-10-16T07:00:39;10.88;;;1.75;;
74231;SDS011;62590;52.430;4.902;2022-10-16T07:03:04;10.63;;;1.65;;
74231;SDS011;62590;52.430;4.902;2022-10-16T07:05:29;11.70;;;2.40;;
74231;SDS011;62590;52.430;4.902;2022-10-16T07:07:55;11.23;;;1.90;;
74231;SDS011;62590;52.430;4.902;2022-10-16T07:10:20;5.25;;;1.60;;
74231;SDS011;62590;52.430;4.902;2022-10-16T07:12:49;4.75;;;1.95;;
74231;SDS011;62590;52.430;4.902;2022-10-16T07:15:14;9.65;;;2.05;;
74231;SDS011;62590;52.430;4.902;2022-10-16T07:17:39;8.70;;;2.00;;
74231;SDS011;62590;52.430;4.902;2022-10-16T07:20:05;8.05;;;1.50;;
74231;SDS011;62590;52.430;4.902;2022-10-16T07:22:31;8.93;;;2.03;;
74231;SDS011;62590;52.430;4.902;2022-10-16T07:24:56;8.80;;;1.70;;
74231;SDS011;62590;52.430;4.902;2022-10-16T07:27:21;8.45;;;2.58;;
74231;SDS011;62590;52.430;4.902;2022-10-16T07:29:48;4.13;;;1.70;;
74231;SDS011;62590;52.430;4.902;2022-10-16T07:32:14;6.13;;;1.10;;
74231;SDS011;62590;52.430;4.902;2022-10-16T07:34:39;7.50;;;2.08;;
74231;SDS011;62590;52.430;4.902;2022-10-16T07:37:05;7.30;;;1.85;;
74231;SDS011;62590;52.430;4.902;2022-10-16T07:39:30;5.57;;;1.30;;
74231;SDS011;62590;52.430;4.902;2022-10-16T07:41:56;7.40;;;1.73;;
74231;SDS011;62590;52.430;4.902;2022-10-16T07:44:21;8.82;;;1.75;;
74231;SDS011;62590;52.430;4.902;2022-10-16T07:46:46;8.48;;;1.40;;
74231;SDS011;62590;52.430;4.902;2022-10-16T07:49:12;10.73;;;1.75;;
74231;SDS011;62590;52.430;4.902;2022-10-16T07:51:37;7.15;;;1.80;;
74231;SDS011;62590;52.430;4.902;2022-10-16T07:54:04;7.93;;;1.95;;
74231;SDS011;62590;52.430;4.902;2022-10-16T07:56:30;12.40;;;2.55;;
74231;SDS011;62590;52.430;4.902;2022-10-16T07:58:55;9.40;;;2.42;;
74231;SDS011;62590;52.430;4.902;2022-10-16T08:01:21;8.30;;;1.90;;
74231;SDS011;62590;52.430;4.902;2022-10-16T08:03:48;8.02;;;1.73;;
74231;SDS011;62590;52.430;4.902;2022-10-16T08:06:14;11.40;;;1.77;;
74231;SDS011;62590;52.430;4.902;2022-10-16T08:08:40;16.25;;;2.13;;
74231;SDS011;62590;52.430;4.902;2022-10-16T08:11:06;9.85;;;1.90;;
74231;SDS011;62590;52.430;4.902;2022-10-16T08:13:31;12.30;;;2.10;;
74231;SDS011;62590;52.430;4.902;2022-10-16T08:15:57;12.95;;;1.35;;
74231;SDS011;62590;52.430;4.902;2022-10-16T08:18:22;9.60;;;2.22;;
74231;SDS011;62590;52.430;4.902;2022-10-16T08:20:54;10.13;;;2.05;;
74231;SDS011;62590;52.430;4.902;2022-10-16T08:23:20;14.93;;;2.13;;
74231;SDS011;62590;52.430;4.902;2022-10-16T08:25:46;10.10;;;2.67;;
74231;SDS011;62590;52.430;4.902;2022-10-16T08:28:11;13.25;;;1.75;;
74231;SDS011;62590;52.430;4.902;2022-10-16T08:30:36;13.57;;;2.35;;
74231;SDS011;62590;52.430;4.902;2022-10-16T08:33:02;18.20;;;2.67;;
74231;SDS011;62590;52.430;4.902;2022-10-16T08:35:28;9.70;;;1.90;;
74231;SDS011;62590;52.430;4.902;2022-10-16T08:37:53;12.50;;;2.00;;
74231;SDS011;62590;52.430;4.902;2022-10-16T08:40:20;14.10;;;2.47;;
74231;SDS011;62590;52.430;4.902;2022-10-16T08:42:53;12.60;;;2.30;;
74231;SDS011;62590;52.430;4.902;2022-10-16T08:48:30;8.52;;;2.05;;
74231;SDS011;62590;52.430;4.902;2022-10-16T08:51:07;12.27;;;2.83;;
74231;SDS011;62590;52.430;4.902;2022-10-16T08:53:41;13.82;;;2.28;;
74231;SDS011;62590;52.430;4.902;2022-10-16T08:56:10;15.17;;;3.23;;
74231;SDS011;62590;52.430;4.902;2022-10-16T08:58:35;16.35;;;2.20;;
74231;SDS011;62590;52.430;4.902;2022-10-16T09:01:01;15.95;;;1.90;;
74231;SDS011;62590;52.430;4.902;2022-10-16T09:06:12;9.95;;;1.75;;
74231;SDS011;62590;52.430;4.902;2022-10-16T09:16:43;19.00;;;2.40;;
74231;SDS011;62590;52.430;4.902;2022-10-16T09:19:18;15.45;;;2.35;;
74231;SDS011;62590;52.430;4.902;2022-10-16T09:24:26;14.27;;;2.42;;
74231;SDS011;62590;52.430;4.902;2022-10-16T09:26:52;17.73;;;2.40;;
74231;SDS011;62590;52.430;4.902;2022-10-16T09:29:19;15.20;;;2.08;;
74231;SDS011;62590;52.430;4.902;2022-10-16T09:31:46;20.98;;;2.97;;
74231;SDS011;62590;52.430;4.902;2022-10-16T09:34:24;18.00;;;2.15;;
74231;SDS011;62590;52.430;4.902;2022-10-16T09:36:52;17.67;;;2.13;;
74231;SDS011;62590;52.430;4.902;2022-10-16T09:39:17;30.83;;;2.58;;
74231;SDS011;62590;52.430;4.902;2022-10-16T09:41:43;14.05;;;2.20;;
74231;SDS011;62590;52.430;4.902;2022-10-16T09:44:21;16.92;;;2.30;;
74231;SDS011;62590;52.430;4.902;2022-10-16T09:47:00;19.52;;;2.78;;
74231;SDS011;62590;52.430;4.902;2022-10-16T09:52:27;21.30;;;2.00;;
74231;SDS011;62590;52.430;4.902;2022-10-16T09:54:57;22.92;;;2.42;;
74231;SDS011;62590;52.430;4.902;2022-10-16T09:57:24;19.23;;;2.75;;
74231;SDS011;62590;52.430;4.902;2022-10-16T09:59:54;17.83;;;2.85;;
74231;SDS011;62590;52.430;4.902;2022-10-16T10:02:38;15.63;;;2.08;;
74231;SDS011;62590;52.430;4.902;2022-10-16T10:05:04;23.00;;;2.22;;
74231;SDS011;62590;52.430;4.902;2022-10-16T10:07:42;15.13;;;2.00;;
74231;SDS011;62590;52.430;4.902;2022-10-16T10:10:19;19.80;;;2.33;;
74231;SDS011;62590;52.430;4.902;2022-10-16T10:12:47;16.00;;;2.22;;
74231;SDS011;62590;52.430;4.902;2022-10-16T10:15:13;23.15;;;2.85;;
74231;SDS011;62590;52.430;4.902;2022-10-16T10:17:56;19.05;;;2.67;;
74231;SDS011;62590;52.430;4.902;2022-10-16T10:20:24;15.18;;;1.95;;
74231;SDS011;62590;52.430;4.902;2022-10-16T10:23:00;13.82;;;1.83;;
74231;SDS011;62590;52.430;4.902;2022-10-16T10:25:48;21.73;;;3.30;;
74231;SDS011;62590;52.430;4.902;2022-10-16T10:33:59;11.75;;;2.22;;
74231;SDS011;62590;52.430;4.902;2022-10-16T10:36:40;14.35;;;2.15;;
74231;SDS011;62590;52.430;4.902;2022-10-16T10:42:27;19.08;;;2.80;;
74231;SDS011;62590;52.430;4.902;2022-10-16T11:06:39;16.77;;;2.45;;
74231;SDS011;62590;52.430;4.902;2022-10-16T11:09:12;20.43;;;3.17;;
74231;SDS011;62590;52.430;4.902;2022-10-16T11:12:00;18.63;;;1.92;;
74231;SDS011;62590;52.430;4.902;2022-10-16T11:14:40;28.02;;;2.10;;
74231;SDS011;62590;52.430;4.902;2022-10-16T11:20:28;12.60;;;1.98;;
74231;SDS011;62590;52.430;4.902;2022-10-16T11:25:53;17.10;;;2.25;;
74231;SDS011;62590;52.430;4.902;2022-10-16T11:28:42;17.05;;;2.72;;
74231;SDS011;62590;52.430;4.902;2022-10-16T11:31:16;14.13;;;1.92;;
74231;SDS011;62590;52.430;4.902;2022-10-16T11:33:49;16.42;;;2.30;;
74231;SDS011;62590;52.430;4.902;2022-10-16T11:36:44;18.63;;;2.30;;
74231;SDS011;62590;52.430;4.902;2022-10-16T11:39:22;15.50;;;1.88;;
74231;SDS011;62590;52.430;4.902;2022-10-16T11:41:50;13.90;;;1.70;;
74231;SDS011;62590;52.430;4.902;2022-10-16T11:44:42;14.52;;;1.85;;
74231;SDS011;62590;52.430;4.902;2022-10-16T11:49:44;15.38;;;1.80;;
74231;SDS011;62590;52.430;4.902;2022-10-16T11:52:56;19.25;;;2.53;;
74231;SDS011;62590;52.430;4.902;2022-10-16T11:55:17;14.40;;;1.88;;
74231;SDS011;62590;52.430;4.902;2022-10-16T11:57:52;11.43;;;1.83;;
74231;SDS011;62590;52.430;4.902;2022-10-16T12:05:49;18.38;;;1.95;;
74231;SDS011;62590;52.430;4.902;2022-10-16T12:08:35;14.80;;;2.60;;
74231;SDS011;62590;52.430;4.902;2022-10-16T12:11:22;14.27;;;2.05;;
74231;SDS011;62590;52.430;4.902;2022-10-16T12:13:51;11.10;;;2.30;;
74231;SDS011;62590;52.430;4.902;2022-10-16T12:18:43;12.93;;;2.17;;
74231;SDS011;62590;52.430;4.902;2022-10-16T12:21:10;12.85;;;2.13;;
74231;SDS011;62590;52.430;4.902;2022-10-16T12:23:47;12.73;;;2.17;;
74231;SDS011;62590;52.430;4.902;2022-10-16T12:26:13;18.80;;;3.05;;
74231;SDS011;62590;52.430;4.902;2022-10-16T12:28:39;19.20;;;2.42;;
74231;SDS011;62590;52.430;4.902;2022-10-16T12:31:06;27.23;;;3.30;;
74231;SDS011;62590;52.430;4.902;2022-10-16T12:36:26;19.63;;;1.83;;
74231;SDS011;62590;52.430;4.902;2022-10-16T12:38:55;20.17;;;2.30;;
74231;SDS011;62590;52.430;4.902;2022-10-16T12:41:24;18.00;;;2.15;;
74231;SDS011;62590;52.430;4.902;2022-10-16T12:44:01;34.00;;;4.80;;
74231;SDS011;62590;52.430;4.902;2022-10-16T12:49:06;13.02;;;1.98;;
74231;SDS011;62590;52.430;4.902;2022-10-16T12:51:46;18.30;;;2.42;;
74231;SDS011;62590;52.430;4.902;2022-10-16T13:00:18;14.23;;;1.73;;
74231;SDS011;62590;52.430;4.902;2022-10-16T13:11:05;12.23;;;1.42;;
74231;SDS011;62590;52.430;4.902;2022-10-16T13:14:01;17.05;;;1.60;;
74231;SDS011;62590;52.430;4.902;2022-10-16T13:30:13;8.40;;;1.30;;
74231;SDS011;62590;52.430;4.902;2022-10-16T13:32:46;14.40;;;1.80;;
74231;SDS011;62590;52.430;4.902;2022-10-16T13:35:19;5.65;;;0.82;;
74231;SDS011;62590;52.430;4.902;2022-10-16T13:37:46;7.47;;;1.00;;
74231;SDS011;62590;52.430;4.902;2022-10-16T13:40:17;7.32;;;1.50;;
74231;SDS011;62590;52.430;4.902;2022-10-16T13:42:45;8.02;;;1.58;;
74231;SDS011;62590;52.430;4.902;2022-10-16T13:45:17;8.40;;;1.50;;
74231;SDS011;62590;52.430;4.902;2022-10-16T13:47:46;13.93;;;1.50;;
74231;SDS011;62590;52.430;4.902;2022-10-16T13:50:13;7.25;;;1.20;;
74231;SDS011;62590;52.430;4.902;2022-10-16T13:52:42;13.85;;;1.92;;
74231;SDS011;62590;52.430;4.902;2022-10-16T13:55:15;17.67;;;2.45;;
74231;SDS011;62590;52.430;4.902;2022-10-16T13:57:42;9.90;;;1.42;;
74231;SDS011;62590;52.430;4.902;2022-10-16T14:00:18;15.70;;;1.95;;
74231;SDS011;62590;52.430;4.902;2022-10-16T14:02:58;22.52;;;2.40;;
74231;SDS011;62590;52.430;4.902;2022-10-16T14:05:28;8.95;;;1.40;;
74231;SDS011;62590;52.430;4.902;2022-10-16T14:07:53;13.00;;;1.90;;
74231;SDS011;62590;52.430;4.902;2022-10-16T14:10:24;9.02;;;1.45;;
74231;SDS011;62590;52.430;4.902;2022-10-16T14:13:02;10.52;;;2.25;;
74231;SDS011;62590;52.430;4.902;2022-10-16T14:15:31;13.68;;;1.60;;
74231;SDS011;62590;52.430;4.902;2022-10-16T14:17:59;10.65;;;1.70;;
74231;SDS011;62590;52.430;4.902;2022-10-16T14:20:26;9.70;;;1.27;;
74231;SDS011;62590;52.430;4.902;2022-10-16T14:23:02;8.23;;;1.27;;
74231;SDS011;62590;52.430;4.902;2022-10-16T14:25:30;8.20;;;2.00;;
74231;SDS011;62590;52.430;4.902;2022-10-16T14:30:37;12.85;;;2.15;;
74231;SDS011;62590;52.430;4.902;2022-10-16T14:33:24;9.20;;;1.20;;
74231;SDS011;62590;52.430;4.902;2022-10-16T14:38:36;11.68;;;1.95;;
74231;SDS011;62590;52.430;4.902;2022-10-16T14:41:03;11.30;;;1.85;;
74231;SDS011;62590;52.430;4.902;2022-10-16T14:43:31;13.45;;;1.90;;
74231;SDS011;62590;52.430;4.902;2022-10-16T14:45:59;9.98;;;1.50;;
74231;SDS011;62590;52.430;4.902;2022-10-16T14:48:26;14.85;;;1.58;;
74231;SDS011;62590;52.430;4.902;2022-10-16T14:50:52;11.65;;;1.45;;
74231;SDS011;62590;52.430;4.902;2022-10-16T14:53:17;11.48;;;2.22;;
74231;SDS011;62590;52.430;4.902;2022-10-16T14:55:43;11.25;;;1.88;;
74231;SDS011;62590;52.430;4.902;2022-10-16T14:58:21;12.48;;;2.25;;
74231;SDS011;62590;52.430;4.902;2022-10-16T15:00:48;18.58;;;2.65;;
74231;SDS011;62590;52.430;4.902;2022-10-16T15:03:14;13.93;;;1.80;;
74231;SDS011;62590;52.430;4.902;2022-10-16T15:05:40;11.30;;;1.77;;
74231;SDS011;62590;52.430;4.902;2022-10-16T15:08:05;12.63;;;2.35;;
74231;SDS011;62590;52.430;4.902;2022-10-16T15:10:31;18.20;;;2.40;;
74231;SDS011;62590;52.430;4.902;2022-10-16T15:13:12;9.05;;;1.67;;
74231;SDS011;62590;52.430;4.902;2022-10-16T15:15:42;13.27;;;2.08;;
74231;SDS011;62590;52.430;4.902;2022-10-16T15:18:09;15.02;;;2.15;;
74231;SDS011;62590;52.430;4.902;2022-10-16T15:20:35;11.32;;;1.85;;
74231;SDS011;62590;52.430;4.902;2022-10-16T15:23:03;10.27;;;1.40;;
74231;SDS011;62590;52.430;4.902;2022-10-16T15:28:11;9.93;;;2.00;;
74231;SDS011;62590;52.430;4.902;2022-10-16T15:30:38;15.20;;;2.15;;
74231;SDS011;62590;52.430;4.902;2022-10-16T15:33:05;12.38;;;1.83;;
74231;SDS011;62590;52.430;4.902;2022-10-16T15:35:36;10.90;;;2.25;;
74231;SDS011;62590;52.430;4.902;2022-10-16T15:38:01;17.30;;;2.60;;
74231;SDS011;62590;52.430;4.902;2022-10-16T15:40:26;16.73;;;2.30;;
74231;SDS011;62590;52.430;4.902;2022-10-16T15:42:52;16.77;;;2.75;;
74231;SDS011;62590;52.430;4.902;2022-10-16T15:45:17;20.83;;;2.70;;
74231;SDS011;62590;52.430;4.902;2022-10-16T15:47:44;13.00;;;1.67;;
74231;SDS011;62590;52.430;4.902;2022-10-16T15:50:10;15.55;;;2.00;;
74231;SDS011;62590;52.430;4.902;2022-10-16T15:52:37;16.40;;;2.63;;
74231;SDS011;62590;52.430;4.902;2022-10-16T15:55:04;12.07;;;2.25;;
74231;SDS011;62590;52.430;4.902;2022-10-16T15:57:31;14.38;;;1.75;;
74231;SDS011;62590;52.430;4.902;2022-10-16T15:59:56;11.07;;;2.15;;
74231;SDS011;62590;52.430;4.902;2022-10-16T16:02:22;12.70;;;2.20;;
74231;SDS011;62590;52.430;4.902;2022-10-16T16:04:47;15.77;;;2.00;;
74231;SDS011;62590;52.430;4.902;2022-10-16T16:07:13;14.98;;;2.50;;
74231;SDS011;62590;52.430;4.902;2022-10-16T16:09:38;11.13;;;1.88;;
74231;SDS011;62590;52.430;4.902;2022-10-16T16:12:03;15.18;;;2.00;;
74231;SDS011;62590;52.430;4.902;2022-10-16T16:14:29;11.05;;;2.28;;
74231;SDS011;62590;52.430;4.902;2022-10-16T16:16:54;11.68;;;1.85;;
74231;SDS011;62590;52.430;4.902;2022-10-16T16:19:20;13.45;;;2.33;;
74231;SDS011;62590;52.430;4.902;2022-10-16T16:21:46;17.45;;;2.97;;
74231;SDS011;62590;52.430;4.902;2022-10-16T16:24:15;15.30;;;2.75;;
74231;SDS011;62590;52.430;4.902;2022-10-16T16:26:40;20.13;;;2.35;;
74231;SDS011;62590;52.430;4.902;2022-10-16T16:29:11;14.02;;;3.17;;
74231;SDS011;62590;52.430;4.902;2022-10-16T16:31:38;19.70;;;2.78;;
74231;SDS011;62590;52.430;4.902;2022-10-16T16:34:04;14.25;;;2.22;;
74231;SDS011;62590;52.430;4.902;2022-10-16T16:36:30;17.00;;;2.65;;
74231;SDS011;62590;52.430;4.902;2022-10-16T16:38:56;18.08;;;3.08;;
74231;SDS011;62590;52.430;4.902;2022-10-16T16:41:23;14.48;;;3.47;;
74231;SDS011;62590;52.430;4.902;2022-10-16T16:43:50;12.68;;;2.90;;
74231;SDS011;62590;52.430;4.902;2022-10-16T16:46:17;9.85;;;3.22;;
74231;SDS011;62590;52.430;4.902;2022-10-16T16:48:42;16.15;;;3.60;;
74231;SDS011;62590;52.430;4.902;2022-10-16T16:51:13;21.00;;;3.88;;
74231;SDS011;62590;52.430;4.902;2022-10-16T16:53:41;18.73;;;3.40;;
74231;SDS011;62590;52.430;4.902;2022-10-16T16:56:08;17.90;;;3.55;;
74231;SDS011;62590;52.430;4.902;2022-10-16T16:58:34;12.30;;;2.90;;
74231;SDS011;62590;52.430;4.902;2022-10-16T17:01:00;15.55;;;3.08;;